Nearby METAR Reports

 

KMLE - Omaha/Millard, Nebraska, USA
Distance from station: NE 1mi, 2km
Updated: Tue, 06-Dec-2022 1:15am CST
Clear
Clear
 Wind from NE
Wind: NE 5 mph , 7 km/h
Temperature: 27°F , -3°C
Wind Chill: 21°F , -6°C
Dew Point: 18°F , -8°C
Humidity: 69%
Barometer: 29.95 inHg , 1014.2 hPa
Clouds: Clear
Visibility: 10 miles , 16 km
2022/12/06 07:15 KMLE 060715Z AUTO 05004KT 10SM CLR M03/M08 A2995 RMK AO2 T10271080
KOFF - Offutt Afb/Belle, Nebraska, USA
Distance from station: ESE 12mi, 20km
Updated: Tue, 06-Dec-2022 12:55am CST
Partly cloudy
Partly cloudy
 Wind from NNE
Wind: NNE 6 mph , 9 km/h
Temperature: 28°F , -2°C
Wind Chill: 21°F , -6°C
Dew Point: 16°F , -9°C
Humidity: 59%
Barometer: 29.98 inHg , 1015.2 hPa
Clouds: Partly cloudy
Visibility: 10 miles , 16 km
Cloud details: Partly cloudy 15000 ft
2022/12/06 06:55 KOFF 060655Z AUTO 03005KT 10SM SCT150 M02/M09 A2998 RMK AO2 SLP166 T10241091 PWINO PNO FZRANO TSNO $
 
KOMA - Omaha/Eppley, Nebraska, USA
Distance from station: NE 15mi, 24km
Updated: Tue, 06-Dec-2022 12:52am CST
Few Clouds
Few Clouds
 Wind from N
Wind: N 7 mph , 11 km/h
Temperature: 25°F , -4°C
Wind Chill: 17°F , -8°C
Dew Point: 16°F , -9°C
Humidity: 69%
Barometer: 29.97 inHg , 1014.9 hPa
Clouds: Few Clouds
Visibility: 10 miles , 16 km
Cloud details: Few Clouds 14000 ft
2022/12/06 06:52 KOMA 060652Z 36006KT 10SM FEW140 M04/M09 A2997 RMK AO2 SLP156 T10441089
KBTA - Blair Muni, Nebraska, USA
Distance from station: N 16mi, 25km
Updated: Tue, 06-Dec-2022 1:15am CST
Clear
Clear
 Wind from NNE
Wind: NNE 10 mph , 17 km/h
Temperature: 25°F , -4°C
Wind Chill: 15°F , -9°C
Dew Point: 18°F , -8°C
Humidity: 74%
Barometer: 29.94 inHg , 1013.9 hPa
Clouds: Clear
Visibility: 10 miles , 16 km
2022/12/06 07:15 KBTA 060715Z AUTO 03009KT 10SM CLR M04/M08 A2994 RMK AO2 T10381078
 
KCBF - Council Bluffs, Iowa, USA
Distance from station: ENE 20mi, 32km
Updated: Tue, 06-Dec-2022 1:15am CST
Few Clouds
Few Clouds
 Wind from NNE
Wind: NNE 10 mph , 17 km/h
Temperature: 23°F , -5°C
Wind Chill: 13°F , -11°C
Dew Point: 16°F , -9°C
Humidity: 74%
Barometer: 29.93 inHg , 1013.5 hPa
Clouds: Few Clouds
Visibility: 10 miles , 16 km
Cloud details: Few Clouds 11000 ft
2022/12/06 07:15 KCBF 060715Z AUTO 03009KT 10SM FEW110 M05/M09 A2993 RMK AO2
KPMV - Plattsmouth Muni, Nebraska, USA
Distance from station: SE 20mi, 32km
Updated: Tue, 06-Dec-2022 1:15am CST
Clear
Clear
 Wind from NNE
Wind: NNE 8 mph , 13 km/h
Temperature: 27°F , -3°C
Wind Chill: 19°F , -7°C
Dew Point: 18°F , -8°C
Humidity: 69%
Clouds: Clear
Visibility: 10 miles , 16 km
2022/12/06 07:15 KPMV 060715Z AUTO 03007KT 10SM CLR M03/M08 RMK AO2 T10321085
 
KAHQ - Wahoo, Nebraska, USA
Distance from station: W 25mi, 40km
Updated: Tue, 06-Dec-2022 1:15am CST
Clear
Clear
 Wind from N
Wind: N 6 mph , 9 km/h
Temperature: 19°F , -7°C
Wind Chill: 11°F , -12°C
Dew Point: 16°F , -9°C
Humidity: 86%
Barometer: 29.96 inHg , 1014.6 hPa
Clouds: Clear
Visibility: 10 miles , 16 km
2022/12/06 07:15 KAHQ 060715Z AUTO 01005KT 10SM CLR M07/M09 A2996 RMK AO2 T10691092
KFET - Fremont Muni Arp, Nebraska, USA
Distance from station: NW 27mi, 43km
Updated: Tue, 06-Dec-2022 1:15am CST
Clear
Clear
 Wind from calm
Wind: Calm
Temperature: 25°F , -4°C
Dew Point: 19°F , -7°C
Humidity: 80%
Barometer: 29.96 inHg , 1014.6 hPa
Clouds: Clear
Visibility: 10 miles , 16 km
2022/12/06 07:15 KFET 060715Z AUTO 00000KT 10SM CLR M04/M07 A2996 RMK AO2 T10371073
 
KTQE - Tekamah, Nebraska, USA
Distance from station: N 40mi, 64km
Updated: Tue, 06-Dec-2022 12:54am CST
Clear
Clear
 Wind from NE
Wind: NE 7 mph , 11 km/h
Temperature: 27°F , -3°C
Wind Chill: 19°F , -7°C
Dew Point: 18°F , -8°C
Humidity: 69%
Barometer: 29.99 inHg , 1015.6 hPa
Clouds: Clear
Visibility: 10 miles , 16 km
2022/12/06 06:54 KTQE 060654Z AUTO 05006KT 10SM CLR M03/M08 A2999 RMK AO2 SLP160 T10331083
KLNK - Lincoln, Nebraska, USA
Distance from station: SW 41mi, 65km
Updated: Tue, 06-Dec-2022 12:54am CST
Few Clouds
Few Clouds
 Wind from NNE
Wind: NNE 9 mph , 15 km/h
Temperature: 25°F , -4°C
Wind Chill: 16°F , -9°C
Dew Point: 18°F , -8°C
Humidity: 74%
Barometer: 29.96 inHg , 1014.6 hPa
Clouds: Few Clouds
Visibility: 10 miles , 16 km
Cloud details: Few Clouds 11000 ft
2022/12/06 06:54 KLNK 060654Z AUTO 03008KT 10SM FEW110 M04/M08 A2996 RMK AO2 SLP155 T10391083
 
KAFK - Nebraska City, Nebraska, USA
Distance from station: SSE 43mi, 70km
Updated: Tue, 06-Dec-2022 1:15am CST
Clear
Clear
 Wind from NE
Wind: NE 7 mph , 11 km/h
Temperature: 27°F , -3°C
Wind Chill: 19°F , -7°C
Dew Point: 18°F , -8°C
Humidity: 69%
Barometer: 29.93 inHg , 1013.5 hPa
Clouds: Clear
Visibility: 10 miles , 16 km
2022/12/06 07:15 KAFK 060715Z AUTO 04006KT 10SM CLR M03/M08 A2993 RMK AO2 T10281081
KRDK - Red Oak, Iowa, USA
Distance from station: ESE 47mi, 75km
Updated: Tue, 06-Dec-2022 1:15am CST
Partly cloudy
Partly cloudy
 Wind from NNE
Wind: NNE 10 mph , 17 km/h
Temperature: 28°F , -2°C
Wind Chill: 19°F , -7°C
Dew Point: 19°F , -7°C
Humidity: 69%
Barometer: 29.95 inHg , 1014.2 hPa
Clouds: Partly cloudy
Visibility: 10 miles , 16 km
Cloud details: Partly cloudy 24000 ft
Partly cloudy 26000 ft
2022/12/06 07:15 KRDK 060715Z AUTO 03009KT 10SM SCT240 SCT260 M02/M07 A2995 RMK AO2
 
KSDA - Shenandoah Muni, Iowa, USA
Distance from station: SE 48mi, 77km
Updated: Tue, 06-Dec-2022 1:15am CST
Few Clouds
Few Clouds
 Wind from NE
Wind: NE 8 mph , 13 km/h
Temperature: 28°F , -2°C
Wind Chill: 20°F , -7°C
Dew Point: 19°F , -7°C
Humidity: 69%
Barometer: 29.93 inHg , 1013.5 hPa
Clouds: Few Clouds
Visibility: 10 miles , 16 km
Cloud details: Few Clouds 11000 ft
2022/12/06 07:15 KSDA 060715Z AUTO 04007KT 10SM FEW110 M02/M07 A2993 RMK AO2
KHNR - Harlan Muni, Iowa, USA
Distance from station: NE 49mi, 80km
Updated: Tue, 06-Dec-2022 1:15am CST
Clear
Clear
 Wind from NNE
Wind: NNE 13 mph , 20 km/h
Temperature: 23°F , -5°C
Wind Chill: 11°F , -12°C
Dew Point: 18°F , -8°C
Humidity: 80%
Barometer: 29.97 inHg , 1014.9 hPa
Clouds: Clear
Visibility: 10 miles , 16 km
2022/12/06 07:15 KHNR 060715Z AUTO 03011KT 10SM CLR M05/M08 A2997 RMK A01